createdAt,value
2022-09-06T00:00:00.758Z,3.76
2022-09-06T00:02:48.437Z,3.40
2022-09-06T00:05:36.035Z,3.74
2022-09-06T00:08:23.711Z,3.64
2022-09-06T00:11:11.381Z,3.61
2022-09-06T00:14:00.997Z,3.61
2022-09-06T00:16:48.576Z,3.84
2022-09-06T00:19:36.189Z,3.26
2022-09-06T00:22:23.774Z,3.47
2022-09-06T00:25:11.394Z,3.74
2022-09-06T00:27:58.983Z,3.43
2022-09-06T00:30:46.603Z,3.70
2022-09-06T00:33:34.213Z,3.50
2022-09-06T00:36:21.825Z,3.54
2022-09-06T00:39:09.418Z,3.56
2022-09-06T00:41:57.026Z,3.78
2022-09-06T00:44:44.599Z,3.33
2022-09-06T00:47:32.221Z,3.63
2022-09-06T00:50:19.808Z,3.63
2022-09-06T00:53:07.519Z,3.62
2022-09-06T00:55:55.099Z,3.51
2022-09-06T00:58:42.718Z,3.42
2022-09-06T01:01:30.346Z,3.38
2022-09-06T01:04:18.013Z,3.49
2022-09-06T01:07:05.572Z,3.75
2022-09-06T01:09:53.184Z,3.87
2022-09-06T01:12:40.776Z,3.86
2022-09-06T01:15:28.424Z,3.68
2022-09-06T01:18:16.053Z,3.85
2022-09-06T01:21:03.679Z,3.87
2022-09-06T01:23:51.288Z,4.02
2022-09-06T01:26:38.892Z,4.03
2022-09-06T01:29:26.480Z,3.66
2022-09-06T01:32:14.083Z,3.94
2022-09-06T01:35:01.678Z,3.97
2022-09-06T01:37:49.285Z,3.77
2022-09-06T01:40:36.879Z,4.15
2022-09-06T01:43:24.469Z,4.17
2022-09-06T01:46:12.135Z,3.76
2022-09-06T01:48:59.785Z,3.96
2022-09-06T01:51:47.405Z,3.71
2022-09-06T01:54:34.991Z,3.99
2022-09-06T01:57:22.639Z,3.86
2022-09-06T02:00:11.270Z,4.06
2022-09-06T02:02:58.859Z,3.88
2022-09-06T02:05:46.454Z,3.63
2022-09-06T02:08:34.050Z,3.84
2022-09-06T02:11:21.645Z,3.89
2022-09-06T02:14:09.257Z,3.77
2022-09-06T02:16:56.888Z,3.84
2022-09-06T02:19:44.597Z,3.80
2022-09-06T02:22:32.185Z,3.88
2022-09-06T02:25:19.815Z,3.91
2022-09-06T02:28:07.401Z,3.87
2022-09-06T02:30:55.032Z,4.26
2022-09-06T02:33:42.656Z,4.18
2022-09-06T02:36:30.265Z,3.79
2022-09-06T02:39:17.881Z,4.15
2022-09-06T02:42:05.467Z,3.78
2022-09-06T02:44:53.040Z,3.65
2022-09-06T02:47:40.657Z,3.71
2022-09-06T02:50:28.243Z,3.95
2022-09-06T02:53:15.858Z,3.94
2022-09-06T02:56:03.439Z,3.84
2022-09-06T02:58:51.073Z,4.06
2022-09-06T03:01:38.702Z,3.80
2022-09-06T03:04:26.373Z,3.69
2022-09-06T03:07:14.067Z,3.90
2022-09-06T03:10:03.647Z,3.86
2022-09-06T03:12:51.229Z,3.69
2022-09-06T03:15:38.821Z,3.98
2022-09-06T03:18:26.504Z,4.15
2022-09-06T03:21:14.301Z,3.83
2022-09-06T03:24:01.864Z,3.88
2022-09-06T03:26:49.473Z,3.94
2022-09-06T03:29:37.152Z,3.85
2022-09-06T03:32:26.719Z,4.16
2022-09-06T03:35:14.418Z,3.70
2022-09-06T03:38:01.996Z,4.05
2022-09-06T03:40:49.607Z,4.21
2022-09-06T03:43:37.186Z,3.88
2022-09-06T03:46:24.845Z,3.61
2022-09-06T03:49:12.424Z,3.80
2022-09-06T03:52:00.026Z,3.90
2022-09-06T03:54:47.596Z,3.82
2022-09-06T03:57:35.187Z,4.15
2022-09-06T04:00:22.791Z,3.96
2022-09-06T04:03:10.419Z,4.03
2022-09-06T04:05:58.002Z,3.80
2022-09-06T04:08:45.603Z,3.83
2022-09-06T04:11:33.175Z,3.54
2022-09-06T04:14:20.786Z,3.71
2022-09-06T04:17:08.388Z,3.73
2022-09-06T04:19:55.980Z,3.94
2022-09-06T04:22:43.577Z,3.75
2022-09-06T04:25:31.177Z,4.06
2022-09-06T04:28:18.749Z,3.68
2022-09-06T04:31:06.461Z,3.82
2022-09-06T04:33:54.058Z,3.49
2022-09-06T04:36:44.497Z,3.81
2022-09-06T04:39:35.744Z,3.63
2022-09-06T04:42:23.372Z,3.81
2022-09-06T04:45:10.956Z,3.89
2022-09-06T04:47:58.564Z,3.54
2022-09-06T04:50:46.174Z,3.58
2022-09-06T04:53:33.771Z,3.74
2022-09-06T04:56:21.373Z,3.80
2022-09-06T04:59:08.963Z,3.57
2022-09-06T05:01:56.586Z,3.56
2022-09-06T05:04:44.226Z,3.30
2022-09-06T05:07:31.810Z,3.81
2022-09-06T05:10:19.417Z,3.71
2022-09-06T05:13:07.000Z,4.33
2022-09-06T05:15:54.595Z,4.31
2022-09-06T05:18:42.169Z,4.21
2022-09-06T05:21:29.760Z,3.97
2022-09-06T05:24:17.341Z,3.80
2022-09-06T05:27:04.935Z,3.82
2022-09-06T05:29:52.644Z,3.96
2022-09-06T05:32:40.209Z,4.03
2022-09-06T05:35:29.804Z,4.14
2022-09-06T05:38:17.418Z,4.39
2022-09-06T05:41:05.009Z,3.99
2022-09-06T05:43:52.630Z,4.71
2022-09-06T05:46:40.214Z,4.48
2022-09-06T05:49:27.819Z,4.12
2022-09-06T05:52:15.408Z,4.62
2022-09-06T05:55:03.027Z,5.26
2022-09-06T05:57:50.609Z,4.39
2022-09-06T06:00:38.217Z,4.77
2022-09-06T06:03:25.838Z,5.69
2022-09-06T06:06:13.415Z,4.88
2022-09-06T06:09:01.015Z,4.55
2022-09-06T06:11:48.595Z,3.97
2022-09-06T06:14:36.302Z,4.03
2022-09-06T06:17:25.881Z,3.77
2022-09-06T06:20:13.644Z,4.08
2022-09-06T06:23:01.278Z,3.79
2022-09-06T06:25:48.964Z,3.94
2022-09-06T06:28:36.571Z,3.94
2022-09-06T06:31:24.247Z,3.91
2022-09-06T06:34:11.849Z,3.91
2022-09-06T06:36:59.444Z,3.49
2022-09-06T06:39:47.163Z,3.68
2022-09-06T06:42:34.789Z,3.82
2022-09-06T06:45:22.402Z,3.62
2022-09-06T06:48:10.014Z,4.13
2022-09-06T06:50:59.625Z,3.66
2022-09-06T06:53:47.243Z,3.95
2022-09-06T06:56:34.837Z,3.60
2022-09-06T06:59:22.436Z,3.91
2022-09-06T07:02:10.131Z,3.51
2022-09-06T07:04:57.871Z,3.62
2022-09-06T07:07:45.470Z,3.44
2022-09-06T07:10:33.460Z,3.56
2022-09-06T07:13:21.566Z,3.47
2022-09-06T07:16:09.279Z,3.54
2022-09-06T07:18:56.897Z,3.32
2022-09-06T07:21:44.529Z,3.62
2022-09-06T07:24:34.116Z,3.87
2022-09-06T07:30:29.217Z,3.65
2022-09-06T07:33:16.823Z,3.61
2022-09-06T07:36:04.392Z,3.79
2022-09-06T07:38:52.002Z,3.99
2022-09-06T07:41:39.616Z,3.63
2022-09-06T07:44:27.201Z,3.54
2022-09-06T07:53:31.267Z,3.70
2022-09-06T07:56:19.082Z,3.74
2022-09-06T07:59:06.681Z,3.99
2022-09-06T08:01:54.325Z,4.02
2022-09-06T08:04:41.964Z,3.91
2022-09-06T08:07:45.103Z,3.96
2022-09-06T08:10:32.713Z,4.15
2022-09-06T08:13:22.362Z,4.05
2022-09-06T08:16:09.996Z,4.64
2022-09-06T08:18:57.638Z,5.30
2022-09-06T08:21:45.226Z,5.13
2022-09-06T08:24:32.845Z,5.36
2022-09-06T08:27:20.441Z,5.01
2022-09-06T08:30:08.133Z,4.63
2022-09-06T08:32:57.729Z,4.93
2022-09-06T08:35:45.341Z,4.58
2022-09-06T08:38:32.941Z,4.87
2022-09-06T08:41:20.543Z,5.07
2022-09-06T08:47:15.726Z,5.26
2022-09-06T08:50:03.343Z,5.28
2022-09-06T08:55:58.505Z,5.22
2022-09-06T08:58:46.118Z,5.87
2022-09-06T09:01:33.878Z,5.91
2022-09-06T09:04:21.558Z,4.42
2022-09-06T09:07:09.200Z,3.47
2022-09-06T09:09:56.824Z,3.22
2022-09-06T09:12:44.412Z,3.19
2022-09-06T09:15:32.123Z,2.87
2022-09-06T09:18:19.707Z,2.77
2022-09-06T09:21:07.322Z,2.80
2022-09-06T09:23:54.921Z,3.02
2022-09-06T09:26:42.526Z,2.88
2022-09-06T09:29:34.391Z,2.93
2022-09-06T09:32:23.811Z,2.99
2022-09-06T09:35:11.401Z,2.75
2022-09-06T09:38:04.908Z,2.83
2022-09-06T09:40:54.131Z,2.64
2022-09-06T09:43:39.971Z,2.57
2022-09-06T09:46:27.613Z,2.58
2022-09-06T09:49:15.244Z,2.95
2022-09-06T09:52:02.828Z,3.03
2022-09-06T09:54:50.530Z,2.63
2022-09-06T09:57:38.117Z,2.62
2022-09-06T10:00:27.753Z,2.82
2022-09-06T10:03:15.462Z,2.54
2022-09-06T10:06:03.458Z,3.04
2022-09-06T10:08:51.515Z,2.57
2022-09-06T10:11:39.131Z,2.68
2022-09-06T10:14:33.452Z,2.76
2022-09-06T10:17:21.182Z,2.72
2022-09-06T10:20:08.779Z,2.79
2022-09-06T10:22:56.388Z,2.94
2022-09-06T10:25:46.307Z,2.88
2022-09-06T10:28:36.698Z,3.24
2022-09-06T10:31:24.328Z,3.12
2022-09-06T10:34:11.976Z,3.62
2022-09-06T10:36:59.594Z,3.84
2022-09-06T10:39:47.287Z,4.25
2022-09-06T10:42:34.917Z,3.65
2022-09-06T10:45:22.546Z,3.46
2022-09-06T10:48:14.425Z,3.81
2022-09-06T10:51:02.450Z,3.28
2022-09-06T10:53:50.048Z,3.98
2022-09-06T10:56:37.661Z,3.46
2022-09-06T10:59:40.638Z,3.32
2022-09-06T11:02:28.400Z,3.23
2022-09-06T11:11:31.248Z,2.95
2022-09-06T11:14:12.678Z,2.62
2022-09-06T11:16:58.726Z,2.78
2022-09-06T11:19:46.312Z,2.81
2022-09-06T11:22:34.019Z,2.98
2022-09-06T11:25:23.595Z,3.05
2022-09-06T11:28:11.209Z,2.88
2022-09-06T11:30:58.891Z,2.89
2022-09-06T11:33:46.573Z,2.62
2022-09-06T11:36:34.154Z,2.69
2022-09-06T11:42:29.374Z,2.69
2022-09-06T11:45:16.966Z,2.33
2022-09-06T11:48:04.563Z,2.60
2022-09-06T11:50:52.181Z,2.68
2022-09-06T11:53:39.784Z,2.50
2022-09-06T11:56:27.363Z,2.65
2022-09-06T11:59:14.994Z,2.55
2022-09-06T12:02:02.593Z,2.45
2022-09-06T12:04:50.190Z,2.50
2022-09-06T12:07:37.773Z,2.68
2022-09-06T12:10:25.383Z,2.56
2022-09-06T12:13:12.978Z,2.25
2022-09-06T12:16:00.653Z,2.36
2022-09-06T12:18:48.334Z,2.37
2022-09-06T12:21:35.965Z,2.48
2022-09-06T12:24:23.585Z,2.32
2022-09-06T12:27:11.176Z,2.40
2022-09-06T12:29:58.782Z,2.50
2022-09-06T12:32:46.382Z,2.97
2022-09-06T12:38:41.547Z,2.62
2022-09-06T12:41:29.178Z,2.64
2022-09-06T12:44:18.739Z,2.84
2022-09-06T12:47:06.358Z,3.11
2022-09-06T12:49:53.977Z,2.90
2022-09-06T12:52:41.598Z,3.59
2022-09-06T12:55:29.190Z,3.41
2022-09-06T12:58:16.799Z,3.52
2022-09-06T13:01:04.387Z,3.77
2022-09-06T13:03:51.976Z,3.76
2022-09-06T13:06:39.586Z,4.05
2022-09-06T13:09:27.220Z,4.27
2022-09-06T13:12:14.821Z,3.93
2022-09-06T13:15:02.442Z,4.06
2022-09-06T13:17:50.036Z,3.97
2022-09-06T13:20:37.658Z,3.71
2022-09-06T13:23:25.265Z,3.89
2022-09-06T13:26:12.970Z,3.89
2022-09-06T13:29:02.562Z,3.72
2022-09-06T13:31:50.157Z,3.89
2022-09-06T13:34:37.774Z,3.19
2022-09-06T13:37:25.368Z,2.96
2022-09-06T13:40:13.093Z,3.33
2022-09-06T13:43:00.759Z,2.97
2022-09-06T13:45:48.372Z,2.86
2022-09-06T13:48:35.959Z,2.68
2022-09-06T13:51:23.571Z,2.81
2022-09-06T13:54:11.165Z,3.22
2022-09-06T13:56:58.762Z,3.47
2022-09-06T13:59:46.335Z,3.61
2022-09-06T14:02:33.997Z,4.29
2022-09-06T14:05:21.678Z,3.89
2022-09-06T14:08:09.287Z,3.87
2022-09-06T14:10:56.868Z,3.99
2022-09-06T14:13:44.494Z,3.96
2022-09-06T14:16:32.083Z,4.16
2022-09-06T14:19:19.681Z,3.97
2022-09-06T14:22:07.271Z,3.34
2022-09-06T14:24:54.848Z,3.17
2022-09-06T14:27:42.446Z,2.97
2022-09-06T14:30:30.076Z,3.33
2022-09-06T14:33:17.689Z,3.38
2022-09-06T14:36:05.289Z,2.95
2022-09-06T14:38:52.898Z,2.85
2022-09-06T14:41:40.475Z,2.74
2022-09-06T14:44:28.086Z,2.24
2022-09-06T14:47:15.667Z,2.21
2022-09-06T14:50:03.294Z,1.56
2022-09-06T14:52:50.868Z,1.87
2022-09-06T14:55:38.456Z,1.88
2022-09-06T14:58:26.054Z,1.87
2022-09-06T15:01:13.706Z,1.96
2022-09-06T15:04:01.331Z,1.56
2022-09-06T15:06:48.947Z,1.86
2022-09-06T15:09:36.523Z,2.77
2022-09-06T15:12:24.145Z,1.88
2022-09-06T15:15:11.735Z,2.03
2022-09-06T15:17:59.351Z,1.87
2022-09-06T15:20:46.956Z,1.60
2022-09-06T15:23:34.662Z,2.01
2022-09-06T15:26:22.301Z,1.85
2022-09-06T15:29:09.975Z,1.89
2022-09-06T15:31:57.575Z,1.64
2022-09-06T15:34:45.762Z,1.89
2022-09-06T15:37:33.335Z,1.99
2022-09-06T15:40:20.939Z,1.92
2022-09-06T15:43:08.535Z,2.03
2022-09-06T15:45:56.180Z,1.77
2022-09-06T15:48:43.796Z,1.86
2022-09-06T15:51:31.821Z,1.89
2022-09-06T15:54:19.445Z,2.02
2022-09-06T15:57:07.038Z,1.71
2022-09-06T15:59:54.714Z,2.01
2022-09-06T16:02:42.343Z,1.89
2022-09-06T16:08:37.557Z,1.73
2022-09-06T16:11:25.170Z,1.83
2022-09-06T16:14:12.759Z,1.82
2022-09-06T16:17:00.408Z,1.73
2022-09-06T16:19:48.051Z,1.88
2022-09-06T16:22:35.657Z,1.85
2022-09-06T16:25:23.244Z,2.00
2022-09-06T16:28:10.849Z,1.76
2022-09-06T16:30:58.465Z,1.83
2022-09-06T16:33:46.101Z,1.69
2022-09-06T16:36:33.799Z,1.94
2022-09-06T16:39:21.382Z,1.95
2022-09-06T16:42:10.970Z,2.17
2022-09-06T16:44:58.547Z,2.06
2022-09-06T16:47:46.163Z,2.45
2022-09-06T16:50:35.752Z,2.52
2022-09-06T16:53:23.579Z,2.33
2022-09-06T16:56:11.172Z,2.53
2022-09-06T16:58:58.770Z,2.90
2022-09-06T17:01:46.481Z,2.88
2022-09-06T17:04:36.195Z,2.70
2022-09-06T17:07:23.811Z,3.21
2022-09-06T17:10:11.443Z,3.25
2022-09-06T17:13:08.090Z,3.68
2022-09-06T17:15:55.702Z,3.82
2022-09-06T17:18:43.281Z,3.67
2022-09-06T17:21:30.895Z,3.84
2022-09-06T17:24:18.485Z,3.91
2022-09-06T17:27:06.095Z,3.44
2022-09-06T17:29:53.681Z,3.40
2022-09-06T17:32:41.306Z,3.62
2022-09-06T17:35:28.897Z,3.39
2022-09-06T17:38:16.501Z,3.68
2022-09-06T17:41:04.071Z,3.34
2022-09-06T17:43:51.664Z,3.72
2022-09-06T17:46:51.897Z,4.52
2022-09-06T17:49:46.784Z,5.13
2022-09-06T17:52:34.420Z,5.03
2022-09-06T17:55:22.129Z,4.69
2022-09-06T17:58:09.716Z,5.21
2022-09-06T18:00:57.453Z,4.26
2022-09-06T18:03:45.073Z,3.73
2022-09-06T18:06:32.689Z,3.31
2022-09-06T18:09:20.276Z,3.08
2022-09-06T18:12:09.881Z,2.59
2022-09-06T18:14:57.488Z,2.90
2022-09-06T18:17:45.098Z,2.42
2022-09-06T18:20:32.679Z,2.67
2022-09-06T18:23:20.295Z,2.63
2022-09-06T18:26:07.888Z,2.37
2022-09-06T18:28:55.509Z,2.56
2022-09-06T18:31:43.153Z,2.50
2022-09-06T18:34:31.902Z,2.54
2022-09-06T18:37:19.499Z,2.25
2022-09-06T18:40:07.169Z,2.31
2022-09-06T18:42:54.802Z,2.56
2022-09-06T18:45:44.464Z,2.32
2022-09-06T18:48:32.095Z,2.07
2022-09-06T18:51:19.675Z,2.25
2022-09-06T18:54:07.298Z,2.29
2022-09-06T18:56:54.901Z,2.54
2022-09-06T18:59:42.548Z,2.41
2022-09-06T19:02:30.293Z,2.48
2022-09-06T19:05:17.923Z,2.30
2022-09-06T19:08:05.530Z,2.27
2022-09-06T19:10:53.128Z,2.45
2022-09-06T19:13:40.705Z,2.19
2022-09-06T19:16:28.401Z,2.26
2022-09-06T19:19:16.028Z,2.30
2022-09-06T19:22:03.626Z,2.01
2022-09-06T19:24:51.210Z,2.13
2022-09-06T19:27:38.831Z,1.99
2022-09-06T19:30:26.413Z,2.23
2022-09-06T19:33:14.039Z,2.21
2022-09-06T19:36:11.661Z,1.95
2022-09-06T19:39:03.531Z,2.00
2022-09-06T19:41:52.359Z,2.69
2022-09-06T19:44:39.947Z,2.48
2022-09-06T19:47:27.561Z,2.39
2022-09-06T19:50:15.159Z,2.47
2022-09-06T19:53:07.058Z,2.67
2022-09-06T19:55:54.923Z,2.41
2022-09-06T19:58:42.524Z,2.60
2022-09-06T20:01:30.133Z,2.60
2022-09-06T20:04:17.756Z,2.58
2022-09-06T20:07:05.353Z,2.64
2022-09-06T20:09:52.974Z,2.78
2022-09-06T20:12:40.558Z,2.72
2022-09-06T20:15:28.179Z,2.74
2022-09-06T20:18:15.805Z,2.67
2022-09-06T20:21:03.402Z,2.51
2022-09-06T20:23:50.999Z,2.92
2022-09-06T20:26:38.605Z,2.79
2022-09-06T20:29:26.197Z,2.78
2022-09-06T20:32:13.805Z,3.56
2022-09-06T20:35:02.861Z,3.11
2022-09-06T20:37:50.463Z,2.75
2022-09-06T20:40:38.047Z,2.86
2022-09-06T20:43:25.740Z,2.73
2022-09-06T20:46:13.378Z,3.29
2022-09-06T20:49:01.045Z,2.78
2022-09-06T20:51:48.633Z,3.02
2022-09-06T20:54:36.231Z,3.07
2022-09-06T20:57:23.825Z,2.94
2022-09-06T21:00:14.394Z,3.25
2022-09-06T21:03:04.189Z,2.75
2022-09-06T21:05:51.791Z,3.08
2022-09-06T21:08:42.606Z,2.89
2022-09-06T21:11:30.533Z,2.89
2022-09-06T21:14:18.240Z,2.54
2022-09-06T21:17:05.818Z,2.82
2022-09-06T21:19:53.423Z,2.64
2022-09-06T21:22:41.016Z,2.53
2022-09-06T21:25:28.629Z,2.59
2022-09-06T21:28:16.273Z,2.48
2022-09-06T21:31:03.881Z,2.51
2022-09-06T21:33:51.561Z,2.44
2022-09-06T21:36:39.161Z,2.43
2022-09-06T21:39:26.796Z,2.57
2022-09-06T21:42:14.417Z,2.19
2022-09-06T21:45:02.015Z,2.45
2022-09-06T21:47:49.590Z,2.54
2022-09-06T21:50:37.271Z,2.45
2022-09-06T21:53:24.860Z,2.41
2022-09-06T21:56:12.464Z,2.38
2022-09-06T21:59:00.056Z,2.40
2022-09-06T22:01:47.727Z,2.11
2022-09-06T22:04:35.354Z,2.23
2022-09-06T22:07:22.965Z,2.34
2022-09-06T22:10:10.547Z,2.31
2022-09-06T22:12:58.151Z,2.39
2022-09-06T22:15:45.783Z,2.38
2022-09-06T22:18:33.473Z,2.18
2022-09-06T22:21:21.093Z,2.38
2022-09-06T22:24:08.711Z,2.47
2022-09-06T22:26:56.275Z,2.12
2022-09-06T22:29:43.898Z,2.32
2022-09-06T22:32:31.480Z,2.63
2022-09-06T22:35:19.098Z,2.22
2022-09-06T22:38:07.810Z,2.60
2022-09-06T22:40:55.421Z,2.21
2022-09-06T22:43:43.003Z,2.36
2022-09-06T22:46:30.842Z,2.67
2022-09-06T22:49:18.500Z,2.65
2022-09-06T22:52:06.108Z,2.56
2022-09-06T22:54:53.683Z,2.47
2022-09-06T22:57:41.280Z,2.49
2022-09-06T23:00:28.902Z,2.65
2022-09-06T23:03:16.581Z,2.61
2022-09-06T23:06:04.167Z,2.59
2022-09-06T23:08:51.755Z,2.42
2022-09-06T23:11:39.358Z,2.68
2022-09-06T23:14:27.006Z,2.33
2022-09-06T23:17:14.594Z,2.47
2022-09-06T23:20:02.208Z,2.39
2022-09-06T23:22:49.819Z,2.60
2022-09-06T23:25:37.447Z,2.32
2022-09-06T23:28:25.143Z,2.55
2022-09-06T23:31:14.756Z,2.29
2022-09-06T23:34:02.400Z,2.52
2022-09-06T23:36:49.993Z,2.36
2022-09-06T23:39:37.682Z,2.39
2022-09-06T23:42:25.299Z,2.23
2022-09-06T23:45:13.011Z,2.17
2022-09-06T23:48:00.612Z,2.38
2022-09-06T23:50:48.219Z,2.27
2022-09-06T23:53:35.802Z,2.19
2022-09-06T23:56:23.424Z,2.32
2022-09-06T23:59:10.996Z,2.38
